Time;durP1;ratioP1;P1;durP2;ratioP2;P2;SDS_P1;SDS_P2;PMS_P1;PMS_P2;Temp;Humidity;BMP_temperature;BMP_pressure;BME280_temperature;BME280_humidity;BME280_pressure;Samples;Min_cycle;Max_cycle;Signal;HPM_P1;HPM_P2
2021/11/22 00:00:31;;;;;;;17.35;9.98;;;3.20;99.90;;;;;;5050404;28;20132;-73
2021/11/22 00:02:59;;;;;;;18.73;10.00;;;3.20;99.90;;;;;;5051854;28;20091;-74
2021/11/22 00:05:31;;;;;;;18.73;10.18;;;3.10;99.90;;;;;;5050522;28;20148;-73
2021/11/22 00:07:58;;;;;;;18.35;10.32;;;3.20;99.90;;;;;;5049797;28;20127;-73
2021/11/22 00:10:29;;;;;;;18.20;10.38;;;3.20;99.90;;;;;;5051461;28;20393;-73
2021/11/22 00:12:56;;;;;;;21.42;10.88;;;3.10;99.90;;;;;;5050172;28;20095;-73
2021/11/22 00:15:23;;;;;;;18.25;10.05;;;3.10;99.90;;;;;;5050407;28;20128;-73
2021/11/22 00:17:50;;;;;;;23.63;10.43;;;3.10;99.90;;;;;;5049625;28;20136;-73
2021/11/22 00:20:23;;;;;;;20.77;11.00;;;3.10;99.90;;;;;;5051493;28;20041;-73
2021/11/22 00:22:55;;;;;;;19.20;10.15;;;3.10;99.90;;;;;;5050363;28;20067;-73
2021/11/22 00:25:22;;;;;;;20.58;11.27;;;3.10;99.90;;;;;;5052729;28;20087;-73
2021/11/22 00:27:53;;;;;;;22.92;11.32;;;3.10;99.90;;;;;;5058422;28;20064;-74
2021/11/22 00:30:43;;;;;;;17.73;8.98;;;3.10;99.90;;;;;;5059673;28;20059;-73
2021/11/22 00:33:19;;;;;;;21.35;12.35;;;3.10;99.90;;;;;;5051934;28;20127;-73
2021/11/22 00:36:15;;;;;;;20.17;11.35;;;3.10;99.90;;;;;;5058164;28;20041;-73
2021/11/22 00:38:42;;;;;;;20.08;10.75;;;3.10;99.90;;;;;;5044146;28;20045;-73
2021/11/22 00:41:13;;;;;;;17.88;9.98;;;3.00;99.90;;;;;;5049110;28;20410;-73
2021/11/22 00:43:40;;;;;;;18.02;11.00;;;3.00;99.90;;;;;;5060415;28;20131;-73
2021/11/22 00:46:07;;;;;;;18.70;10.60;;;3.10;99.90;;;;;;5049158;28;20152;-73
2021/11/22 00:48:39;;;;;;;17.27;10.02;;;3.10;99.90;;;;;;5049645;28;20484;-73
2021/11/22 00:51:11;;;;;;;18.75;10.15;;;3.10;99.90;;;;;;5051781;28;20140;-73
2021/11/22 00:53:38;;;;;;;22.33;10.32;;;3.10;99.90;;;;;;5050301;28;20571;-73
2021/11/22 00:56:05;;;;;;;19.42;10.40;;;3.20;99.90;;;;;;5050149;28;20076;-73
2021/11/22 00:58:36;;;;;;;20.08;10.38;;;3.10;99.90;;;;;;5034379;28;20132;-73
2021/11/22 01:01:03;;;;;;;19.63;10.98;;;3.20;99.90;;;;;;5051569;28;20128;-73
2021/11/22 01:03:35;;;;;;;18.52;10.43;;;3.20;99.90;;;;;;5051664;28;20135;-73
2021/11/22 01:06:07;;;;;;;17.88;9.43;;;3.20;99.90;;;;;;5050228;28;20136;-73
2021/11/22 01:08:38;;;;;;;18.55;9.90;;;3.20;99.90;;;;;;5050095;28;20516;-73
2021/11/22 01:11:10;;;;;;;18.15;9.55;;;3.20;99.90;;;;;;5050498;28;20136;-73
2021/11/22 01:13:42;;;;;;;20.23;10.73;;;3.10;99.90;;;;;;5051613;28;20508;-73
2021/11/22 01:16:14;;;;;;;17.60;9.95;;;3.10;99.90;;;;;;5034395;28;20047;-73
2021/11/22 01:18:48;;;;;;;20.50;10.18;;;3.10;99.90;;;;;;5034537;28;20104;-73
2021/11/22 01:21:15;;;;;;;19.50;10.02;;;3.10;99.90;;;;;;5051506;28;20127;-73
2021/11/22 01:23:47;;;;;;;19.88;10.50;;;3.10;99.90;;;;;;5034278;28;20132;-73
2021/11/22 01:26:20;;;;;;;18.02;9.57;;;3.10;99.90;;;;;;5051382;28;20131;-73
2021/11/22 01:28:52;;;;;;;17.60;10.03;;;3.10;99.90;;;;;;5050085;28;20143;-73
2021/11/22 01:31:24;;;;;;;19.17;9.32;;;3.20;99.90;;;;;;5051285;28;20045;-73
2021/11/22 01:33:51;;;;;;;18.55;10.68;;;3.20;99.90;;;;;;5049881;28;20136;-73
2021/11/22 01:36:23;;;;;;;17.95;9.05;;;3.10;99.90;;;;;;5050131;28;20041;-73
2021/11/22 01:38:55;;;;;;;19.13;10.40;;;3.20;99.90;;;;;;5050898;28;20116;-73
2021/11/22 01:41:22;;;;;;;18.35;10.57;;;3.20;99.90;;;;;;5049894;28;20079;-73
2021/11/22 01:43:53;;;;;;;18.80;10.43;;;3.20;99.90;;;;;;5050152;28;20047;-73
2021/11/22 01:46:22;;;;;;;18.08;9.65;;;3.20;99.90;;;;;;5033560;28;20064;-73
2021/11/22 01:48:56;;;;;;;21.77;11.07;;;3.20;99.90;;;;;;5033948;28;20041;-73
2021/11/22 01:51:22;;;;;;;17.17;9.55;;;3.20;99.90;;;;;;5049930;28;20130;-73
2021/11/22 01:53:49;;;;;;;18.88;10.95;;;3.20;99.90;;;;;;5049862;28;20139;-73
2021/11/22 01:56:21;;;;;;;18.70;9.52;;;3.10;99.90;;;;;;5034093;28;20067;-73
2021/11/22 01:58:53;;;;;;;17.15;9.95;;;3.20;99.90;;;;;;5050884;28;20047;-73
2021/11/22 02:01:20;;;;;;;19.38;10.48;;;3.20;99.90;;;;;;5050397;28;20137;-73
2021/11/22 02:03:47;;;;;;;17.15;10.18;;;3.20;99.90;;;;;;5049286;28;20482;-73
2021/11/22 02:06:19;;;;;;;19.40;10.15;;;3.20;99.90;;;;;;5049534;28;20041;-73
2021/11/22 02:08:51;;;;;;;17.17;9.05;;;3.20;99.90;;;;;;5054012;28;20583;-73
2021/11/22 02:11:17;;;;;;;17.85;10.43;;;3.20;99.90;;;;;;5053111;28;20411;-73
2021/11/22 02:13:49;;;;;;;21.08;10.55;;;3.20;99.90;;;;;;5054979;28;20467;-73
2021/11/22 02:16:16;;;;;;;16.23;9.45;;;3.20;99.90;;;;;;5036900;28;20045;-74
2021/11/22 02:18:48;;;;;;;16.67;9.52;;;3.20;99.90;;;;;;5053158;28;20095;-73
2021/11/22 02:21:15;;;;;;;17.42;9.88;;;3.20;99.90;;;;;;5052952;28;20123;-73
2021/11/22 02:23:46;;;;;;;17.83;9.90;;;3.20;99.90;;;;;;5036143;28;20041;-73
2021/11/22 02:26:14;;;;;;;26.13;9.80;;;3.20;99.90;;;;;;5052646;28;20136;-73
2021/11/22 02:28:46;;;;;;;20.75;10.38;;;3.20;99.90;;;;;;5036369;28;20198;-73
2021/11/22 02:31:18;;;;;;;18.38;10.35;;;3.20;99.90;;;;;;5052808;28;20040;-73
2021/11/22 02:33:44;;;;;;;21.13;10.82;;;3.20;99.90;;;;;;5053220;28;20135;-73
2021/11/22 02:36:11;;;;;;;19.95;10.00;;;3.20;99.90;;;;;;5053150;28;20152;-73
2021/11/22 02:38:39;;;;;;;20.02;11.07;;;3.20;99.90;;;;;;5036181;28;20132;-73
2021/11/22 02:41:11;;;;;;;21.25;10.60;;;3.20;99.90;;;;;;5054296;28;20045;-73
2021/11/22 02:43:46;;;;;;;19.83;11.30;;;3.10;99.90;;;;;;5037154;28;20702;-73
2021/11/22 02:46:17;;;;;;;21.92;10.75;;;3.20;99.90;;;;;;5053056;28;20132;-73
2021/11/22 02:48:49;;;;;;;23.90;11.80;;;3.20;99.90;;;;;;5052722;28;20082;-73
2021/11/22 02:51:21;;;;;;;19.52;10.43;;;3.20;99.90;;;;;;5052947;28;20041;-73
2021/11/22 02:54:00;;;;;;;23.30;12.70;;;3.20;99.90;;;;;;5052114;28;20051;-73
2021/11/22 02:56:35;;;;;;;25.00;11.65;;;3.20;99.90;;;;;;5053003;28;20037;-73
2021/11/22 02:59:07;;;;;;;23.77;11.38;;;3.20;99.90;;;;;;5053584;28;20043;-73
2021/11/22 03:01:39;;;;;;;23.33;12.27;;;3.20;99.90;;;;;;5052673;28;20128;-73
2021/11/22 03:04:11;;;;;;;28.30;12.38;;;3.20;99.90;;;;;;5052541;28;20140;-73
2021/11/22 03:06:44;;;;;;;23.88;12.48;;;3.30;99.90;;;;;;5036588;28;20525;-73
2021/11/22 03:09:11;;;;;;;27.77;12.52;;;3.20;99.90;;;;;;5052542;28;20040;-73
2021/11/22 03:11:42;;;;;;;26.27;13.13;;;3.20;99.90;;;;;;5052294;28;20144;-73
2021/11/22 03:14:10;;;;;;;25.40;12.90;;;3.20;99.90;;;;;;5053613;28;20514;-73
2021/11/22 03:16:36;;;;;;;26.40;14.13;;;3.30;99.90;;;;;;5053477;28;20068;-73
2021/11/22 03:19:03;;;;;;;29.90;14.40;;;3.30;99.90;;;;;;5051501;28;20139;-73
2021/11/22 03:21:30;;;;;;;29.17;13.02;;;3.30;99.90;;;;;;5053958;28;20139;-73
2021/11/22 03:23:56;;;;;;;27.15;12.75;;;3.30;99.90;;;;;;5052727;28;20131;-73
2021/11/22 03:26:23;;;;;;;24.83;12.20;;;3.30;99.90;;;;;;5052083;28;20131;-73
2021/11/22 03:28:57;;;;;;;27.07;12.83;;;3.30;99.90;;;;;;5036287;28;20049;-73
2021/11/22 03:31:28;;;;;;;29.33;12.98;;;3.20;99.90;;;;;;5052104;28;20375;-73
2021/11/22 03:34:02;;;;;;;26.38;13.38;;;3.20;99.90;;;;;;5036048;28;20131;-73
2021/11/22 03:36:34;;;;;;;27.30;13.90;;;3.20;99.90;;;;;;5052058;28;20380;-73
2021/11/22 03:39:11;;;;;;;30.83;13.98;;;3.20;99.90;;;;;;5052841;28;20472;-73
2021/11/22 03:41:38;;;;;;;28.13;12.95;;;3.20;99.90;;;;;;5035252;28;20087;-73
2021/11/22 03:44:11;;;;;;;29.85;15.18;;;3.20;99.90;;;;;;5052048;28;20051;-73
2021/11/22 03:46:49;;;;;;;28.70;14.17;;;3.20;99.90;;;;;;5052050;28;20055;-73
2021/11/22 03:49:22;;;;;;;32.63;14.60;;;3.20;99.90;;;;;;5052723;28;20103;-73
2021/11/22 03:51:50;;;;;;;31.63;14.00;;;3.10;99.90;;;;;;5052830;28;20045;-73
2021/11/22 03:54:22;;;;;;;28.17;13.93;;;3.20;99.90;;;;;;5051905;28;20136;-73
2021/11/22 03:56:54;;;;;;;32.22;14.23;;;3.20;99.90;;;;;;5052841;28;20048;-73
2021/11/22 03:59:26;;;;;;;26.77;12.32;;;3.20;99.90;;;;;;5051213;28;20127;-73
2021/11/22 04:01:52;;;;;;;31.65;14.27;;;3.20;99.90;;;;;;5051448;28;20128;-73
2021/11/22 04:04:24;;;;;;;29.80;13.23;;;3.20;99.90;;;;;;5035602;28;20044;-73
2021/11/22 04:06:56;;;;;;;31.10;13.65;;;3.20;99.90;;;;;;5052655;28;20041;-73
2021/11/22 04:09:27;;;;;;;28.27;13.35;;;3.20;99.90;;;;;;5051392;28;20053;-72
2021/11/22 04:11:59;;;;;;;35.65;15.38;;;3.20;99.90;;;;;;5051114;28;20470;-73
2021/11/22 04:14:31;;;;;;;33.25;14.77;;;3.20;99.90;;;;;;5035442;28;20139;-73
2021/11/22 04:16:58;;;;;;;31.27;14.30;;;3.20;99.90;;;;;;5051056;28;20140;-73
2021/11/22 04:19:30;;;;;;;32.50;13.95;;;3.20;99.90;;;;;;5050889;28;20594;-73
2021/11/22 04:22:02;;;;;;;34.50;15.30;;;3.20;99.90;;;;;;5051140;28;20051;-73
2021/11/22 04:24:29;;;;;;;35.72;14.70;;;3.20;99.90;;;;;;5034449;28;20127;-73
2021/11/22 04:26:56;;;;;;;31.67;15.23;;;3.20;99.90;;;;;;5031279;28;20140;-73
2021/11/22 04:29:28;;;;;;;34.92;14.40;;;3.20;99.90;;;;;;5046223;28;20128;-73
2021/11/22 04:31:56;;;;;;;31.08;14.55;;;3.20;99.90;;;;;;5050032;28;20052;-73
2021/11/22 04:34:23;;;;;;;39.08;15.55;;;3.20;99.90;;;;;;5051911;28;20120;-73
2021/11/22 04:36:55;;;;;;;44.83;20.98;;;3.20;99.90;;;;;;5050288;28;20136;-73
2021/11/22 04:39:26;;;;;;;65.88;27.88;;;3.30;99.90;;;;;;5050006;28;20041;-72
2021/11/22 04:41:53;;;;;;;136.80;58.30;;;3.50;99.90;;;;;;5051810;28;20065;-73
2021/11/22 04:44:25;;;;;;;164.15;73.28;;;3.50;99.90;;;;;;5050592;28;20471;-73
2021/11/22 04:46:57;;;;;;;93.82;43.92;;;3.50;99.90;;;;;;5050514;28;20338;-73
2021/11/22 04:49:28;;;;;;;113.43;53.50;;;3.50;99.90;;;;;;5034211;28;20067;-73
2021/11/22 04:52:00;;;;;;;105.38;53.70;;;3.40;99.90;;;;;;5049845;28;20476;-73
2021/11/22 04:54:27;;;;;;;73.45;37.58;;;3.40;99.90;;;;;;5051261;28;20119;-73
2021/11/22 04:56:54;;;;;;;50.90;23.13;;;3.40;99.90;;;;;;5049817;28;20470;-73
2021/11/22 04:59:26;;;;;;;35.90;16.83;;;3.30;99.90;;;;;;5050820;28;20045;-73
2021/11/22 05:01:53;;;;;;;33.70;16.23;;;3.30;99.90;;;;;;5049703;28;20136;-73
2021/11/22 05:04:20;;;;;;;34.33;15.32;;;3.30;99.90;;;;;;5033264;28;20083;-73
2021/11/22 05:06:47;;;;;;;32.15;15.40;;;3.30;99.90;;;;;;5051223;28;20072;-72
2021/11/22 05:09:15;;;;;;;37.00;16.63;;;3.30;99.90;;;;;;5049791;28;20139;-74
2021/11/22 05:11:43;;;;;;;32.50;15.23;;;3.30;99.90;;;;;;5049885;28;20143;-74
2021/11/22 05:14:10;;;;;;;37.03;15.70;;;3.30;99.90;;;;;;5049835;28;20451;-73
2021/11/22 05:16:43;;;;;;;30.92;15.60;;;3.30;99.90;;;;;;5036056;28;20055;-73
2021/11/22 05:19:15;;;;;;;32.30;15.52;;;3.30;99.90;;;;;;5048963;28;20037;-73
2021/11/22 05:21:47;;;;;;;31.17;15.20;;;3.30;99.90;;;;;;5041810;28;20120;-73
2021/11/22 05:24:19;;;;;;;38.10;19.20;;;3.30;99.90;;;;;;5047707;28;20069;-73
2021/11/22 05:26:51;;;;;;;45.78;25.80;;;3.30;99.90;;;;;;5036885;28;20037;-73
2021/11/22 05:29:23;;;;;;;42.78;24.75;;;3.30;99.90;;;;;;5070861;28;20076;-73
2021/11/22 05:31:50;;;;;;;42.15;26.80;;;3.30;99.90;;;;;;5068764;28;20047;-73
2021/11/22 05:34:22;;;;;;;43.50;22.40;;;3.40;99.90;;;;;;5070653;28;20098;-73
2021/11/22 05:36:49;;;;;;;32.72;17.40;;;3.40;99.90;;;;;;5069503;28;20127;-73
2021/11/22 05:39:21;;;;;;;32.53;15.63;;;3.40;99.90;;;;;;5070275;28;20064;-73
2021/11/22 05:41:55;;;;;;;32.35;15.85;;;3.40;99.90;;;;;;5072401;28;20381;-73
2021/11/22 05:44:27;;;;;;;;;;;3.30;99.90;;;;;;5073954;28;20159;-73
2021/11/22 05:46:59;;;;;;;33.92;14.52;;;3.40;99.90;;;;;;5074876;28;19920;-73
2021/11/22 05:49:33;;;;;;;35.00;16.45;;;3.40;99.90;;;;;;5073171;28;20055;-73
2021/11/22 05:52:02;;;;;;;32.55;16.08;;;3.40;99.90;;;;;;5073369;28;20170;-73
2021/11/22 05:54:31;;;;;;;36.90;17.90;;;3.40;99.90;;;;;;5073404;28;20127;-73
2021/11/22 05:56:59;;;;;;;30.55;15.18;;;3.40;99.90;;;;;;5062648;28;20080;-73
2021/11/22 05:59:31;;;;;;;33.67;16.13;;;3.50;99.90;;;;;;5034251;28;20067;-73
2021/11/22 06:01:58;;;;;;;32.85;14.98;;;3.40;99.90;;;;;;5034470;28;20045;-73
2021/11/22 06:04:25;;;;;;;38.83;16.75;;;3.40;99.90;;;;;;5034363;28;20069;-73
2021/11/22 06:06:56;;;;;;;35.08;17.85;;;3.40;99.90;;;;;;5033176;28;20037;-73
2021/11/22 06:09:29;;;;;;;40.75;18.38;;;3.40;99.90;;;;;;5032979;28;20052;-73
2021/11/22 06:12:02;;;;;;;39.45;16.90;;;3.40;99.90;;;;;;5017583;28;20048;-73
2021/11/22 06:14:33;;;;;;;34.10;16.20;;;3.40;99.90;;;;;;5033169;28;20511;-73
2021/11/22 06:17:07;;;;;;;37.83;16.67;;;3.40;99.90;;;;;;5018438;28;20041;-73
2021/11/22 06:19:38;;;;;;;35.88;16.30;;;3.40;99.90;;;;;;5034458;28;20072;-73
2021/11/22 06:22:07;;;;;;;37.20;16.73;;;3.40;99.90;;;;;;5032818;28;20042;-73
2021/11/22 06:24:33;;;;;;;37.95;17.90;;;3.40;99.90;;;;;;5035368;28;20482;-73
2021/11/22 06:27:05;;;;;;;36.78;16.92;;;3.40;99.90;;;;;;5033247;28;20064;-73
2021/11/22 06:29:38;;;;;;;34.25;17.65;;;3.40;99.90;;;;;;5052306;28;20375;-73
2021/11/22 06:32:12;;;;;;;33.30;15.98;;;3.40;99.90;;;;;;5036698;28;20101;-73
2021/11/22 06:34:44;;;;;;;38.15;16.23;;;3.40;99.90;;;;;;5017067;28;20534;-73
2021/11/22 06:37:11;;;;;;;36.38;17.08;;;3.30;99.90;;;;;;5032572;28;20128;-73
2021/11/22 06:39:42;;;;;;;39.92;17.55;;;3.30;99.90;;;;;;5033681;28;20103;-73
2021/11/22 06:42:15;;;;;;;39.95;18.70;;;3.30;99.90;;;;;;5019276;28;20056;-73
2021/11/22 06:44:48;;;;;;;42.45;18.75;;;3.30;99.90;;;;;;5033685;28;20056;-73
2021/11/22 06:47:20;;;;;;;41.60;19.13;;;3.30;99.90;;;;;;5032491;28;20496;-73
2021/11/22 06:49:47;;;;;;;37.63;17.38;;;3.30;99.90;;;;;;5032388;28;20117;-73
2021/11/22 06:52:21;;;;;;;42.33;18.27;;;3.30;99.90;;;;;;5031354;28;20141;-73
2021/11/22 06:54:49;;;;;;;35.97;17.33;;;3.30;99.90;;;;;;5032152;28;20168;-73
2021/11/22 06:57:21;;;;;;;39.28;19.13;;;3.30;99.90;;;;;;5016414;28;20504;-73
2021/11/22 06:59:53;;;;;;;37.85;17.73;;;3.30;99.90;;;;;;5016281;28;20124;-73
2021/11/22 07:02:25;;;;;;;53.42;23.63;;;3.30;99.90;;;;;;5032362;28;20048;-73
2021/11/22 07:04:57;;;;;;;41.03;18.95;;;3.30;99.90;;;;;;5031851;28;20042;-73
2021/11/22 07:07:25;;;;;;;36.95;17.95;;;3.30;99.90;;;;;;5015546;28;20136;-73
2021/11/22 07:09:52;;;;;;;36.17;16.27;;;3.30;99.90;;;;;;5015607;28;20132;-73
2021/11/22 07:12:24;;;;;;;34.63;16.63;;;3.40;99.90;;;;;;5031915;28;20140;-73
2021/11/22 07:14:56;;;;;;;36.95;16.00;;;3.40;99.90;;;;;;5032268;28;20060;-73
2021/11/22 07:17:28;;;;;;;31.60;15.20;;;3.40;99.90;;;;;;5031563;28;20052;-73
2021/11/22 07:19:59;;;;;;;34.83;14.13;;;3.40;99.90;;;;;;5031425;28;20121;-73
2021/11/22 07:22:26;;;;;;;35.45;15.95;;;3.50;99.90;;;;;;5017517;28;20140;-73
2021/11/22 07:24:58;;;;;;;40.28;21.92;;;3.40;99.90;;;;;;5031520;28;20048;-73
2021/11/22 07:27:30;;;;;;;33.40;15.85;;;3.50;99.90;;;;;;5032398;28;20041;-73
2021/11/22 07:30:05;;;;;;;36.35;16.83;;;3.50;99.90;;;;;;5043689;28;20049;-73
2021/11/22 07:32:32;;;;;;;46.55;25.85;;;3.50;99.90;;;;;;5034776;28;20513;-73
2021/11/22 07:35:04;;;;;;;42.55;23.17;;;3.50;99.90;;;;;;5045278;28;20445;-73
2021/11/22 07:37:32;;;;;;;44.70;25.60;;;3.50;99.90;;;;;;5045126;28;20144;-73
2021/11/22 07:40:04;;;;;;;37.95;18.08;;;3.50;99.90;;;;;;5051155;28;20049;-73
2021/11/22 07:42:36;;;;;;;36.97;17.08;;;3.50;99.90;;;;;;5051103;28;20594;-73
2021/11/22 07:45:08;;;;;;;34.47;15.90;;;3.60;99.90;;;;;;5046700;28;20037;-72
2021/11/22 07:47:34;;;;;;;32.65;15.57;;;3.50;99.90;;;;;;5060654;28;20128;-75
2021/11/22 07:50:01;;;;;;;66.82;29.13;;;3.50;99.90;;;;;;5055711;28;20044;-73
2021/11/22 07:52:28;;;;;;;46.20;23.23;;;3.50;99.90;;;;;;5066027;28;20567;-73
2021/11/22 07:54:55;;;;;;;51.60;23.17;;;3.60;99.90;;;;;;5050815;28;20045;-73
2021/11/22 07:57:21;;;;;;;56.33;27.02;;;3.60;99.90;;;;;;5050938;28;20086;-73
2021/11/22 07:59:53;;;;;;;39.85;19.65;;;3.60;99.90;;;;;;5032364;28;20036;-73
2021/11/22 08:02:20;;;;;;;34.92;17.25;;;3.60;99.90;;;;;;5050860;28;20135;-74
2021/11/22 08:04:52;;;;;;;30.70;14.20;;;3.60;99.90;;;;;;5052803;28;20111;-73
2021/11/22 08:07:21;;;;;;;26.30;12.88;;;3.60;99.90;;;;;;5051998;28;20107;-73
2021/11/22 08:09:58;;;;;;;31.48;15.80;;;3.60;99.90;;;;;;5052064;28;20124;-74
2021/11/22 08:12:27;;;;;;;39.97;18.73;;;3.60;99.90;;;;;;5050795;28;20073;-73
2021/11/22 08:15:02;;;;;;;33.50;18.35;;;3.70;99.90;;;;;;5035086;28;20041;-74
2021/11/22 08:17:30;;;;;;;32.50;16.83;;;3.70;99.90;;;;;;5050904;28;20453;-73
2021/11/22 08:19:57;;;;;;;29.20;15.68;;;3.70;99.90;;;;;;5038833;28;20124;-74
2021/11/22 08:22:29;;;;;;;37.40;18.30;;;3.70;99.90;;;;;;5014766;28;20124;-74
2021/11/22 08:24:56;;;;;;;41.47;23.55;;;3.70;99.90;;;;;;5030638;28;20479;-74
2021/11/22 08:27:27;;;;;;;32.03;16.40;;;3.80;99.90;;;;;;5030570;28;20117;-74
2021/11/22 08:29:59;;;;;;;28.05;14.80;;;3.80;99.90;;;;;;5031524;28;20065;-73
2021/11/22 08:32:31;;;;;;;26.15;12.68;;;3.80;99.90;;;;;;5032413;28;20441;-73
2021/11/22 08:34:58;;;;;;;21.25;11.98;;;3.80;99.90;;;;;;5031005;28;20133;-73
2021/11/22 08:37:32;;;;;;;22.85;11.90;;;3.90;99.90;;;;;;5030933;28;20048;-73
2021/11/22 08:40:07;;;;;;;24.35;12.60;;;3.90;99.90;;;;;;5015082;28;20048;-73
2021/11/22 08:42:38;;;;;;;20.80;11.07;;;4.00;99.90;;;;;;5062330;28;20152;-73
2021/11/22 08:45:11;;;;;;;22.08;10.52;;;4.00;99.90;;;;;;5033548;28;20029;-74
2021/11/22 08:47:39;;;;;;;36.88;19.00;;;4.10;99.90;;;;;;5026542;28;20038;-74
2021/11/22 08:50:13;;;;;;;28.27;14.00;;;4.10;99.90;;;;;;5039387;28;20148;-74
2021/11/22 08:52:42;;;;;;;19.48;10.68;;;4.10;99.90;;;;;;5040149;28;20472;-74
2021/11/22 08:55:18;;;;;;;20.58;10.70;;;4.20;99.90;;;;;;5038402;28;20120;-73
2021/11/22 08:57:50;;;;;;;23.15;12.38;;;4.20;99.90;;;;;;5038504;28;20036;-73
2021/11/22 09:00:31;;;;;;;18.90;10.40;;;4.20;99.90;;;;;;5039390;28;20041;-73
2021/11/22 09:02:58;;;;;;;18.27;10.07;;;4.20;99.90;;;;;;5035726;28;20037;-73
2021/11/22 09:05:26;;;;;;;17.83;9.10;;;4.20;99.90;;;;;;5013980;28;20064;-73
2021/11/22 09:07:59;;;;;;;18.38;9.73;;;4.20;99.90;;;;;;5029214;28;20052;-74
2021/11/22 09:10:26;;;;;;;16.98;10.27;;;4.20;99.90;;;;;;5014437;28;20143;-73
2021/11/22 09:12:53;;;;;;;18.50;9.48;;;4.20;99.90;;;;;;5031786;28;20132;-73
2021/11/22 09:15:21;;;;;;;19.48;9.73;;;4.30;99.90;;;;;;5013733;28;20057;-73
2021/11/22 09:17:53;;;;;;;23.25;10.30;;;4.30;99.90;;;;;;5029825;28;20040;-74
2021/11/22 09:20:26;;;;;;;21.13;10.13;;;4.30;99.90;;;;;;5029978;28;20053;-74
2021/11/22 09:23:00;;;;;;;17.33;9.63;;;4.40;99.90;;;;;;5014163;28;20046;-74
2021/11/22 09:25:28;;;;;;;19.23;9.98;;;4.40;99.90;;;;;;5013446;28;20471;-73
2021/11/22 09:28:00;;;;;;;14.82;7.95;;;4.40;99.90;;;;;;5013942;28;20042;-74
2021/11/22 09:30:32;;;;;;;15.32;8.88;;;4.40;99.90;;;;;;5029995;28;20462;-74
2021/11/22 09:32:59;;;;;;;17.23;9.68;;;4.40;99.90;;;;;;5033490;28;20055;-73
2021/11/22 09:35:31;;;;;;;17.05;9.77;;;4.40;99.90;;;;;;5052369;28;20087;-74
2021/11/22 09:38:03;;;;;;;18.00;9.30;;;4.40;99.90;;;;;;5049859;28;20049;-73
2021/11/22 09:40:31;;;;;;;17.23;9.30;;;4.40;99.90;;;;;;5061779;28;20111;-72
2021/11/22 09:42:58;;;;;;;15.77;8.93;;;4.40;99.90;;;;;;5053404;28;20148;-72
2021/11/22 09:45:30;;;;;;;17.95;10.05;;;4.40;99.90;;;;;;5021801;28;20517;-73
2021/11/22 09:47:59;;;;;;;17.55;8.90;;;4.50;99.90;;;;;;5061391;28;20136;-73
2021/11/22 09:50:32;;;;;;;14.55;8.13;;;4.50;99.90;;;;;;5062785;28;20120;-73
2021/11/22 09:53:01;;;;;;;14.18;8.45;;;4.60;99.90;;;;;;5053237;28;20140;-73
2021/11/22 09:55:31;;;;;;;18.95;10.20;;;4.60;99.90;;;;;;5050056;28;20422;-74
2021/11/22 09:58:05;;;;;;;15.10;8.45;;;4.60;99.90;;;;;;5046800;28;20037;-73
2021/11/22 10:00:38;;;;;;;16.65;9.15;;;4.60;99.90;;;;;;5037452;28;20119;-72
2021/11/22 10:03:14;;;;;;;17.45;8.98;;;4.60;99.90;;;;;;5053928;28;20033;-72
2021/11/22 10:05:47;;;;;;;16.13;8.52;;;4.70;99.90;;;;;;5029829;28;20134;-73
2021/11/22 10:08:22;;;;;;;17.00;9.13;;;4.70;99.90;;;;;;5029110;28;20136;-73
2021/11/22 10:10:56;;;;;;;17.55;8.80;;;4.70;99.90;;;;;;5042201;28;20290;-73
2021/11/22 10:13:32;;;;;;;18.33;10.80;;;4.70;99.90;;;;;;5061986;28;20506;-73
2021/11/22 10:16:15;;;;;;;15.70;9.43;;;4.70;99.90;;;;;;5058367;28;20059;-72
2021/11/22 10:18:53;;;;;;;14.35;8.27;;;4.70;99.90;;;;;;5052548;28;20579;-73
2021/11/22 10:21:37;;;;;;;14.20;8.45;;;4.70;99.90;;;;;;5051251;28;20041;-74
2021/11/22 10:24:07;;;;;;;16.20;8.88;;;4.70;99.90;;;;;;5056723;28;20055;-73
2021/11/22 10:26:48;;;;;;;16.73;8.77;;;4.70;99.90;;;;;;5046961;28;20482;-74
2021/11/22 10:29:32;;;;;;;14.90;7.93;;;4.90;99.90;;;;;;5065692;28;20138;-74
2021/11/22 10:32:02;;;;;;;15.32;8.52;;;5.00;99.90;;;;;;5039296;28;20049;-74
2021/11/22 10:34:35;;;;;;;15.82;9.70;;;5.00;99.90;;;;;;5072912;28;20234;-74
2021/11/22 10:37:08;;;;;;;;;;;4.90;99.90;;;;;;5073263;28;20048;-74
2021/11/22 10:39:39;;;;;;;14.27;8.30;;;4.90;99.90;;;;;;5067087;28;20379;-74
2021/11/22 10:42:25;;;;;;;14.10;7.82;;;4.90;99.90;;;;;;5031739;28;20144;-74
2021/11/22 10:44:57;;;;;;;17.88;8.73;;;4.90;99.90;;;;;;5033309;28;20048;-73
2021/11/22 10:47:29;;;;;;;27.58;11.50;;;4.90;99.90;;;;;;5051532;28;20132;-74
2021/11/22 10:50:06;;;;;;;16.05;9.27;;;4.90;99.90;;;;;;5051673;28;20041;-74
2021/11/22 10:52:41;;;;;;;16.50;9.20;;;4.80;99.90;;;;;;5035683;28;20053;-74
2021/11/22 10:55:12;;;;;;;15.80;10.13;;;4.80;99.90;;;;;;5052669;28;20119;-74
2021/11/22 10:57:47;;;;;;;16.27;9.63;;;4.80;99.90;;;;;;5052032;28;20235;-74
2021/11/22 11:00:24;;;;;;;15.90;9.02;;;4.90;99.90;;;;;;5052924;28;20055;-73
2021/11/22 11:02:54;;;;;;;13.63;8.00;;;4.90;99.90;;;;;;5051287;28;20052;-74
2021/11/22 11:05:38;;;;;;;13.15;8.02;;;4.90;99.90;;;;;;5051851;28;20139;-74
2021/11/22 11:08:10;;;;;;;14.85;7.60;;;5.00;99.90;;;;;;5051322;28;20263;-74
2021/11/22 11:10:39;;;;;;;14.45;8.27;;;5.00;99.90;;;;;;5051102;28;20136;-74
2021/11/22 11:13:11;;;;;;;14.70;7.75;;;5.10;99.90;;;;;;5047458;28;20040;-74
2021/11/22 11:15:38;;;;;;;16.08;8.95;;;5.10;99.90;;;;;;5032368;28;20120;-73
2021/11/22 11:18:23;;;;;;;17.15;10.38;;;5.20;99.90;;;;;;5016064;28;20041;-74
2021/11/22 11:20:55;;;;;;;12.02;8.38;;;5.20;99.90;;;;;;5016218;28;20492;-73
2021/11/22 11:23:22;;;;;;;11.30;7.90;;;5.20;99.90;;;;;;5031668;28;20052;-74
2021/11/22 11:25:54;;;;;;;11.48;7.82;;;5.30;99.90;;;;;;5031872;28;20435;-74
2021/11/22 11:28:21;;;;;;;12.48;8.00;;;5.30;99.90;;;;;;5020462;28;20491;-74
2021/11/22 11:30:48;;;;;;;13.07;7.65;;;5.30;99.90;;;;;;5053064;28;20131;-74
2021/11/22 11:33:20;;;;;;;12.43;7.28;;;5.40;99.90;;;;;;5035862;28;20484;-74
2021/11/22 11:35:58;;;;;;;14.07;7.93;;;5.40;99.90;;;;;;5051773;28;20052;-74
2021/11/22 11:38:53;;;;;;;9.75;6.65;;;5.40;99.90;;;;;;5050771;28;20045;-74
2021/11/22 11:41:34;;;;;;;13.75;8.90;;;5.40;99.90;;;;;;5028687;28;20049;-74
2021/11/22 11:44:26;;;;;;;13.43;7.63;;;5.40;99.90;;;;;;5034506;28;20033;-74
2021/11/22 11:47:00;;;;;;;16.17;9.10;;;5.50;99.90;;;;;;5018240;28;20041;-74
2021/11/22 11:49:34;;;;;;;19.17;11.18;;;5.50;99.90;;;;;;5032599;28;20049;-74
2021/11/22 11:52:19;;;;;;;;;;;5.50;99.90;;;;;;5053153;28;20478;-73
2021/11/22 11:54:46;;;;;;;13.13;8.82;;;5.50;99.90;;;;;;5051655;28;20004;-74
2021/11/22 11:57:17;;;;;;;15.75;8.88;;;5.50;99.90;;;;;;5051387;28;20139;-74
2021/11/22 11:59:45;;;;;;;13.43;8.20;;;5.60;99.90;;;;;;5051864;28;20551;-74
2021/11/22 12:02:22;;;;;;;11.27;6.68;;;5.60;99.90;;;;;;5035098;28;20047;-74
2021/11/22 12:04:59;;;;;;;10.45;7.10;;;5.60;99.90;;;;;;5051159;28;20403;-73
2021/11/22 12:07:45;;;;;;;18.80;8.63;;;5.70;99.90;;;;;;5052907;28;20037;-74
2021/11/22 12:10:25;;;;;;;18.27;8.63;;;5.70;99.90;;;;;;5051281;28;20072;-74
2021/11/22 12:12:57;;;;;;;13.68;7.85;;;5.80;99.90;;;;;;5047849;28;20056;-74
2021/11/22 12:15:28;;;;;;;15.48;8.88;;;5.80;99.90;;;;;;5051039;28;20131;-74
2021/11/22 12:18:10;;;;;;;20.95;8.27;;;5.80;99.90;;;;;;5033640;28;20044;-74
2021/11/22 12:20:43;;;;;;;19.67;8.23;;;5.80;99.90;;;;;;5044572;28;20111;-74
2021/11/22 12:23:15;;;;;;;15.88;7.75;;;5.80;99.90;;;;;;5035728;28;20045;-74
2021/11/22 12:25:46;;;;;;;27.15;9.45;;;5.80;99.90;;;;;;5034819;28;20120;-75
2021/11/22 12:28:23;;;;;;;13.93;7.88;;;5.80;99.90;;;;;;5048434;28;20045;-74
2021/11/22 12:31:03;;;;;;;11.43;6.95;;;5.80;99.90;;;;;;5049342;28;20117;-74
2021/11/22 12:33:42;;;;;;;11.88;7.68;;;5.80;99.90;;;;;;5050062;28;20064;-74
2021/11/22 12:36:12;;;;;;;16.52;8.63;;;5.80;99.90;;;;;;5033676;28;20069;-74
2021/11/22 12:38:43;;;;;;;12.50;7.10;;;5.80;99.90;;;;;;5049621;28;20047;-74
2021/11/22 12:41:24;;;;;;;11.98;7.20;;;5.80;99.90;;;;;;5033770;28;20051;-74
2021/11/22 12:43:57;;;;;;;9.52;7.10;;;5.80;99.90;;;;;;5049585;28;20047;-74
2021/11/22 12:46:36;;;;;;;10.70;6.90;;;5.80;99.90;;;;;;5032796;28;20475;-74
2021/11/22 12:49:24;;;;;;;;;;;5.70;99.90;;;;;;5051041;28;20055;-74
2021/11/22 12:51:51;;;;;;;10.70;7.53;;;5.70;99.90;;;;;;5048782;28;20003;-74
2021/11/22 12:54:20;;;;;;;9.15;6.47;;;5.70;99.90;;;;;;5033122;28;20156;-74
2021/11/22 12:56:52;;;;;;;8.75;6.45;;;5.70;99.90;;;;;;5033960;28;20041;-74
2021/11/22 12:59:25;;;;;;;9.43;6.97;;;5.60;99.90;;;;;;5048665;28;20651;-74
2021/11/22 13:01:58;;;;;;;9.73;7.25;;;5.60;99.90;;;;;;5049890;28;20415;-74